Decoded Metar for YPKU (KUNUNURRA in AUSTRALIA) (IATA:KNX) | Meteo·Mobile Aviation Weather
aviador You're here:

YPKU Decoded Metar

KUNUNURRA in AUSTRALIA
Report Time2018-11-21 17:30:00
UTC Time2018-11-21 17:42:09
Flight Rules vfr VFR
Wind270° at 03 kt
W.Decomp.*RWY 30: 2.5 kt HW 1.6 kt LCW
W.Rank270° ranks 34
Current wind is below 270° avg. (4.1)
Visibility9000 m
Phenomena:N/A
Clouds:N/A
Expected CloudBase > 2,400 ft AGL from Temp-Dew spread
CeilingNone
Temp26°C (ISA +11)
Dew Point20°C (70% RH)
QNH1006 hPa
Density Alt1,998 ft
Elevation148 ft
Report Wrong Elevation
Raw Report
SPECI YPKU 211730Z AUTO 27003KT 9000 // NCD 26/20 Q1006
RF00.0/000.0=

Extra information for YPKU:More info

Metar Taf Metar & Taf Last 4 Metars F.Rules Stats Wind Profile Meteogram Temp Stats Airport Information Weather charts Add Link Nearby VenuesMetar ALERT Operation Metar Decoded Social comments